Time;durP1;ratioP1;P1;durP2;ratioP2;P2;SDS_P1;SDS_P2;PMS_P1;PMS_P2;Temp;Humidity;BMP_temperature;BMP_pressure;BME280_temperature;BME280_humidity;BME280_pressure;Samples;Min_cycle;Max_cycle;Signal;HPM_P1;HPM_P2
2023/10/25 00:00:07;;;;;;;10.77;5.68;;;9.40;99.90;;;;;;5034193;28;20049;-70
2023/10/25 00:02:32;;;;;;;15.05;5.72;;;9.40;99.90;;;;;;5034145;28;20045;-70
2023/10/25 00:04:58;;;;;;;14.43;5.55;;;9.40;99.90;;;;;;5034001;28;20082;-70
2023/10/25 00:07:23;;;;;;;12.57;4.85;;;9.40;99.90;;;;;;5034238;28;20144;-70
2023/10/25 00:09:49;;;;;;;7.93;5.00;;;9.40;99.90;;;;;;5035239;28;20037;-70
2023/10/25 00:12:14;;;;;;;9.98;4.72;;;9.40;99.90;;;;;;5035064;28;20037;-70
2023/10/25 00:14:41;;;;;;;14.00;4.95;;;9.40;99.90;;;;;;5033942;28;20041;-70
2023/10/25 00:17:07;;;;;;;9.35;5.53;;;9.30;99.90;;;;;;5033864;28;20061;-70
2023/10/25 00:19:33;;;;;;;10.55;4.82;;;9.30;99.90;;;;;;5033745;28;20042;-70
2023/10/25 00:21:58;;;;;;;9.32;5.05;;;9.30;99.90;;;;;;5033987;28;20041;-70
2023/10/25 00:24:24;;;;;;;12.25;5.30;;;9.30;99.90;;;;;;5033773;28;20037;-70
2023/10/25 00:26:50;;;;;;;10.00;4.60;;;9.30;99.90;;;;;;5033659;28;20437;-70
2023/10/25 00:29:16;;;;;;;10.45;4.57;;;9.30;99.90;;;;;;5033558;28;20049;-70
2023/10/25 00:31:42;;;;;;;11.05;5.05;;;9.30;99.90;;;;;;5033572;28;20034;-70
2023/10/25 00:34:08;;;;;;;11.77;5.07;;;9.20;99.90;;;;;;5033488;28;20045;-70
2023/10/25 00:36:34;;;;;;;13.98;5.43;;;9.20;99.90;;;;;;5033476;28;20071;-70
2023/10/25 00:39:00;;;;;;;9.70;4.40;;;9.20;99.90;;;;;;5032204;28;20045;-70
2023/10/25 00:41:25;;;;;;;7.82;4.43;;;9.20;99.90;;;;;;5033641;28;20052;-70
2023/10/25 00:43:51;;;;;;;12.57;4.40;;;9.20;99.90;;;;;;5033360;28;20042;-70
2023/10/25 00:46:24;;;;;;;10.35;4.72;;;9.10;99.90;;;;;;5033299;28;20390;-70
2023/10/25 00:48:53;;;;;;;8.95;4.85;;;9.20;99.90;;;;;;5033390;28;20053;-70
2023/10/25 00:51:21;;;;;;;10.68;5.30;;;9.10;99.90;;;;;;5033164;28;20121;-70
2023/10/25 00:53:49;;;;;;;12.50;4.30;;;9.10;99.90;;;;;;5033153;28;20056;-70
2023/10/25 00:56:17;;;;;;;9.43;4.18;;;9.10;99.90;;;;;;5033032;28;20050;-70
2023/10/25 00:58:48;;;;;;;9.40;4.03;;;9.10;99.90;;;;;;5032966;28;20050;-70
2023/10/25 01:01:15;;;;;;;10.70;4.43;;;9.10;99.90;;;;;;5032968;28;20072;-70
2023/10/25 01:03:41;;;;;;;13.50;4.43;;;9.00;99.90;;;;;;5032892;28;20053;-70
2023/10/25 01:06:07;;;;;;;11.65;4.32;;;9.00;99.90;;;;;;5032873;28;20063;-70
2023/10/25 01:08:32;;;;;;;9.35;4.00;;;9.00;99.90;;;;;;5032990;28;20091;-70
2023/10/25 01:10:58;;;;;;;12.95;4.97;;;9.00;99.90;;;;;;5032813;28;20092;-70
2023/10/25 01:13:24;;;;;;;10.77;4.82;;;9.00;99.90;;;;;;5032753;28;20064;-71
2023/10/25 01:15:50;;;;;;;11.43;4.47;;;9.00;99.90;;;;;;5032698;28;20041;-70
2023/10/25 01:18:15;;;;;;;8.82;5.32;;;9.00;99.90;;;;;;5033758;28;20383;-70
2023/10/25 01:20:42;;;;;;;9.30;5.00;;;9.00;99.90;;;;;;5032689;28;20044;-70
2023/10/25 01:23:07;;;;;;;9.85;4.50;;;8.90;99.90;;;;;;5032825;28;20545;-70
2023/10/25 01:25:34;;;;;;;11.13;5.30;;;8.90;99.90;;;;;;5016028;28;20167;-70
2023/10/25 01:28:00;;;;;;;13.23;5.75;;;8.90;99.90;;;;;;5032423;28;20088;-70
2023/10/25 01:30:26;;;;;;;11.10;5.35;;;8.90;99.90;;;;;;5015987;28;20116;-70
2023/10/25 01:32:53;;;;;;;9.15;5.00;;;8.90;99.90;;;;;;5033683;28;20041;-70
2023/10/25 01:35:19;;;;;;;11.82;5.70;;;8.90;99.90;;;;;;5032324;28;20076;-70
2023/10/25 01:37:45;;;;;;;13.05;5.35;;;8.90;99.90;;;;;;5032311;28;20037;-70
2023/10/25 01:40:11;;;;;;;9.48;5.18;;;8.80;99.90;;;;;;5032581;28;20068;-70
2023/10/25 01:42:36;;;;;;;11.35;5.10;;;8.80;99.90;;;;;;5034092;28;20454;-70
2023/10/25 01:45:02;;;;;;;13.07;5.72;;;8.90;99.90;;;;;;5032299;28;20043;-70
2023/10/25 01:47:28;;;;;;;11.88;5.20;;;8.80;99.90;;;;;;5032026;28;20449;-70
2023/10/25 01:49:54;;;;;;;10.55;5.10;;;8.80;99.90;;;;;;5031833;28;20033;-70
2023/10/25 01:52:20;;;;;;;12.52;5.65;;;8.80;99.90;;;;;;5015687;28;20505;-70
2023/10/25 01:54:46;;;;;;;9.85;5.85;;;8.80;99.90;;;;;;5032129;28;20041;-70
2023/10/25 01:57:12;;;;;;;11.63;5.55;;;8.80;99.90;;;;;;5033873;28;20052;-70
2023/10/25 01:59:38;;;;;;;13.25;6.13;;;8.80;99.90;;;;;;5031978;28;20490;-70
2023/10/25 02:02:04;;;;;;;11.18;5.72;;;8.80;99.90;;;;;;5032298;28;20037;-70
2023/10/25 02:04:30;;;;;;;12.65;5.88;;;8.80;99.90;;;;;;5031906;28;20037;-70
2023/10/25 02:06:55;;;;;;;12.93;6.25;;;8.80;99.90;;;;;;5032183;28;20036;-70
2023/10/25 02:09:21;;;;;;;13.20;5.70;;;8.80;99.90;;;;;;5032154;28;20516;-70
2023/10/25 02:11:47;;;;;;;14.00;6.15;;;8.70;99.90;;;;;;5032135;28;20053;-70
2023/10/25 02:14:13;;;;;;;13.50;6.25;;;8.80;99.90;;;;;;5033108;28;20410;-70
2023/10/25 02:16:39;;;;;;;10.88;6.47;;;8.70;99.90;;;;;;5031840;28;20050;-70
2023/10/25 02:19:05;;;;;;;15.70;6.65;;;8.80;99.90;;;;;;5031775;28;20041;-70
2023/10/25 02:21:35;;;;;;;10.60;6.28;;;8.70;99.90;;;;;;5031784;28;20037;-70
2023/10/25 02:24:02;;;;;;;13.48;6.47;;;8.80;99.90;;;;;;5031714;28;20421;-70
2023/10/25 02:26:28;;;;;;;14.23;6.50;;;8.80;99.90;;;;;;5031757;28;20038;-70
2023/10/25 02:28:55;;;;;;;14.10;6.43;;;8.70;99.90;;;;;;5031622;28;20041;-70
2023/10/25 02:31:20;;;;;;;13.77;7.30;;;8.70;99.90;;;;;;5031954;28;20048;-70
2023/10/25 02:33:46;;;;;;;13.27;7.30;;;8.70;99.90;;;;;;5031619;28;20501;-70
2023/10/25 02:36:12;;;;;;;12.95;7.18;;;8.70;99.90;;;;;;5031670;28;20045;-70
2023/10/25 02:38:37;;;;;;;14.55;7.35;;;8.70;99.90;;;;;;5031829;28;20168;-70
2023/10/25 02:41:03;;;;;;;17.73;7.88;;;8.70;99.90;;;;;;5031575;28;20041;-70
2023/10/25 02:43:29;;;;;;;16.42;8.48;;;8.70;99.90;;;;;;5031503;28;20038;-70
2023/10/25 02:46:02;;;;;;;15.15;7.70;;;8.60;99.90;;;;;;5031587;28;20045;-70
2023/10/25 02:48:27;;;;;;;15.60;8.15;;;8.70;99.90;;;;;;5031435;28;20124;-70
2023/10/25 02:50:53;;;;;;;12.73;8.05;;;8.60;99.90;;;;;;5031573;28;20152;-70
2023/10/25 02:53:18;;;;;;;16.25;8.00;;;8.70;99.90;;;;;;5031480;28;20034;-70
2023/10/25 02:55:47;;;;;;;14.45;8.23;;;8.70;99.90;;;;;;5031494;28;20040;-70
2023/10/25 02:58:13;;;;;;;12.63;7.82;;;8.60;99.90;;;;;;5031644;28;20045;-70
2023/10/25 03:00:38;;;;;;;15.43;8.27;;;8.60;99.90;;;;;;5031413;28;20450;-70
2023/10/25 03:03:04;;;;;;;14.95;8.23;;;8.60;99.90;;;;;;5034647;28;20125;-70
2023/10/25 03:05:30;;;;;;;17.85;8.82;;;8.60;99.90;;;;;;5035143;28;20081;-70
2023/10/25 03:07:56;;;;;;;12.68;8.50;;;8.70;99.90;;;;;;5035053;28;20041;-70
2023/10/25 03:10:21;;;;;;;17.13;8.07;;;8.60;99.90;;;;;;5035110;28;20080;-70
2023/10/25 03:12:48;;;;;;;15.18;8.00;;;8.60;99.90;;;;;;5035031;28;20107;-70
2023/10/25 03:15:14;;;;;;;16.20;7.93;;;8.60;99.90;;;;;;5034987;28;20518;-70
2023/10/25 03:17:40;;;;;;;11.43;7.32;;;8.60;99.90;;;;;;5035161;28;20076;-70
2023/10/25 03:20:06;;;;;;;13.35;7.22;;;8.60;99.90;;;;;;5034914;28;20048;-70
2023/10/25 03:22:32;;;;;;;12.43;7.20;;;8.60;99.90;;;;;;5018379;28;20045;-70
2023/10/25 03:24:58;;;;;;;15.20;6.93;;;8.60;99.90;;;;;;5018396;28;20037;-70
2023/10/25 03:27:24;;;;;;;13.10;6.88;;;8.60;99.90;;;;;;5034708;28;20402;-70
2023/10/25 03:29:49;;;;;;;13.15;6.88;;;8.60;99.90;;;;;;5034752;28;20117;-70
2023/10/25 03:32:15;;;;;;;12.38;7.07;;;8.60;99.90;;;;;;5034923;28;20171;-70
2023/10/25 03:34:43;;;;;;;12.57;7.30;;;8.50;99.90;;;;;;5034713;28;20046;-70
2023/10/25 03:37:10;;;;;;;12.20;6.85;;;8.50;99.90;;;;;;5034612;28;20045;-70
2023/10/25 03:39:36;;;;;;;15.38;6.97;;;8.50;99.90;;;;;;5034769;28;20049;-70
2023/10/25 03:42:03;;;;;;;11.05;6.38;;;8.50;99.90;;;;;;5034544;28;20041;-70
2023/10/25 03:44:29;;;;;;;17.30;7.20;;;8.50;99.90;;;;;;5017942;28;20034;-70
2023/10/25 03:46:54;;;;;;;13.13;6.90;;;8.50;99.90;;;;;;5034668;28;20037;-70
2023/10/25 03:49:20;;;;;;;14.65;7.35;;;8.50;99.90;;;;;;5034343;28;20033;-70
2023/10/25 03:51:46;;;;;;;14.73;7.15;;;8.40;99.90;;;;;;5034637;28;20046;-70
2023/10/25 03:54:12;;;;;;;12.95;6.72;;;8.40;99.90;;;;;;5034294;28;20125;-70
2023/10/25 03:56:37;;;;;;;14.82;6.85;;;8.40;99.90;;;;;;5034232;28;20084;-70
2023/10/25 03:59:03;;;;;;;13.80;7.07;;;8.40;99.90;;;;;;5034145;28;20064;-70
2023/10/25 04:01:28;;;;;;;14.00;6.45;;;8.40;99.90;;;;;;5034128;28;20049;-70
2023/10/25 04:03:54;;;;;;;12.60;6.70;;;8.40;99.90;;;;;;5034019;28;20049;-70
2023/10/25 04:06:19;;;;;;;13.57;6.80;;;8.40;99.90;;;;;;5017807;28;20037;-70
2023/10/25 04:08:45;;;;;;;15.07;6.57;;;8.40;99.90;;;;;;5033930;28;20037;-70
2023/10/25 04:11:11;;;;;;;13.73;8.10;;;8.40;99.90;;;;;;5033954;28;20094;-70
2023/10/25 04:13:36;;;;;;;11.02;7.07;;;8.40;99.90;;;;;;5033616;28;20048;-70
2023/10/25 04:16:06;;;;;;;16.23;6.85;;;8.40;99.90;;;;;;5033894;28;20041;-70
2023/10/25 04:18:32;;;;;;;15.40;7.50;;;8.40;99.90;;;;;;5033719;28;20132;-70
2023/10/25 04:20:59;;;;;;;12.80;6.70;;;8.40;99.90;;;;;;5017211;28;20133;-70
2023/10/25 04:23:27;;;;;;;12.85;6.88;;;8.40;99.90;;;;;;5033910;28;20509;-70
2023/10/25 04:26:06;;;;;;;16.40;6.72;;;8.40;99.90;;;;;;5033713;28;20037;-70
2023/10/25 04:28:31;;;;;;;12.77;6.97;;;8.50;99.90;;;;;;5033628;28;20033;-70
2023/10/25 04:30:57;;;;;;;12.80;6.90;;;8.40;99.90;;;;;;5033602;28;20047;-70
2023/10/25 04:33:23;;;;;;;14.60;7.57;;;8.40;99.90;;;;;;5033571;28;20037;-70
2023/10/25 04:35:48;;;;;;;15.68;7.05;;;8.40;99.90;;;;;;5033513;28;20033;-70
2023/10/25 04:38:14;;;;;;;15.32;7.13;;;8.40;99.90;;;;;;5033687;28;20041;-70
2023/10/25 04:40:39;;;;;;;12.02;6.10;;;8.40;99.90;;;;;;5033428;28;20383;-70
2023/10/25 04:43:05;;;;;;;10.75;6.40;;;8.40;99.90;;;;;;5033386;28;20038;-70
2023/10/25 04:45:30;;;;;;;12.73;6.20;;;8.40;99.90;;;;;;5016780;28;20041;-70
2023/10/25 04:47:56;;;;;;;13.30;6.22;;;8.40;99.90;;;;;;5016679;28;20048;-70
2023/10/25 04:50:22;;;;;;;12.10;5.70;;;8.40;99.90;;;;;;5033252;28;20085;-70
2023/10/25 04:52:48;;;;;;;14.02;6.50;;;8.40;99.90;;;;;;5033175;28;20124;-70
2023/10/25 04:55:14;;;;;;;14.57;6.07;;;8.40;99.90;;;;;;5033121;28;20425;-70
2023/10/25 04:57:39;;;;;;;18.30;6.85;;;8.40;99.90;;;;;;5033384;28;20041;-70
2023/10/25 05:00:12;;;;;;;15.18;6.30;;;8.40;99.90;;;;;;5033322;28;20045;-70
2023/10/25 05:02:38;;;;;;;13.73;5.88;;;8.40;99.90;;;;;;5033060;28;20502;-70
2023/10/25 05:05:07;;;;;;;12.70;5.97;;;8.40;99.90;;;;;;5032834;28;20053;-70
2023/10/25 05:07:34;;;;;;;12.13;5.63;;;8.30;99.90;;;;;;5032855;28;20044;-70
2023/10/25 05:10:00;;;;;;;9.38;5.50;;;8.30;99.90;;;;;;5033040;28;20045;-70
2023/10/25 05:12:38;;;;;;;11.30;5.28;;;8.30;99.90;;;;;;5032801;28;20521;-70
2023/10/25 05:15:05;;;;;;;11.55;5.80;;;8.40;99.90;;;;;;5032810;28;20410;-70
2023/10/25 05:17:31;;;;;;;12.00;5.82;;;8.30;99.90;;;;;;5032935;28;20103;-70
2023/10/25 05:19:57;;;;;;;15.13;6.43;;;8.30;99.90;;;;;;5032907;28;20076;-70
2023/10/25 05:22:27;;;;;;;14.07;5.97;;;8.30;99.90;;;;;;5032656;28;20506;-70
2023/10/25 05:24:53;;;;;;;8.02;5.25;;;8.30;99.90;;;;;;5031954;28;20046;-70
2023/10/25 05:27:19;;;;;;;12.20;6.10;;;8.30;99.90;;;;;;5032508;28;20034;-69
2023/10/25 05:29:45;;;;;;;13.15;5.82;;;8.30;99.90;;;;;;5032765;28;20040;-70
2023/10/25 05:32:15;;;;;;;10.40;5.05;;;8.30;99.90;;;;;;5032704;28;20485;-70
2023/10/25 05:34:41;;;;;;;15.38;5.90;;;8.30;99.90;;;;;;5032420;28;20521;-70
2023/10/25 05:37:07;;;;;;;12.63;5.90;;;8.40;99.90;;;;;;5032369;28;20486;-70
2023/10/25 05:39:33;;;;;;;10.35;5.32;;;8.30;99.90;;;;;;5032475;28;20528;-70
2023/10/25 05:42:07;;;;;;;11.93;5.30;;;8.30;99.90;;;;;;5032319;28;20046;-70
2023/10/25 05:44:33;;;;;;;11.52;5.72;;;8.30;99.90;;;;;;5032201;28;20041;-70
2023/10/25 05:46:59;;;;;;;12.23;5.82;;;8.30;99.90;;;;;;5032114;28;20079;-70
2023/10/25 05:49:25;;;;;;;10.63;5.35;;;8.30;99.90;;;;;;5015841;28;20124;-70
2023/10/25 05:51:51;;;;;;;10.10;5.78;;;8.30;99.90;;;;;;5032976;28;20033;-70
2023/10/25 05:54:17;;;;;;;15.90;6.28;;;8.20;99.90;;;;;;5032100;28;20037;-70
2023/10/25 05:56:43;;;;;;;17.15;7.03;;;8.20;99.90;;;;;;5032082;28;20103;-70
2023/10/25 05:59:09;;;;;;;17.30;5.93;;;8.20;99.90;;;;;;5032198;28;20199;-70
2023/10/25 06:01:53;;;;;;;13.50;6.25;;;8.20;99.90;;;;;;5015805;28;20379;-70
2023/10/25 06:04:19;;;;;;;10.90;6.18;;;8.20;99.90;;;;;;5031952;28;20073;-70
2023/10/25 06:06:45;;;;;;;13.55;6.05;;;8.10;99.90;;;;;;5032009;28;20045;-70
2023/10/25 06:09:12;;;;;;;13.38;6.28;;;8.10;99.90;;;;;;5031847;28;20041;-70
2023/10/25 06:11:39;;;;;;;14.77;6.38;;;8.10;99.90;;;;;;5031919;28;20128;-70
2023/10/25 06:14:06;;;;;;;10.38;6.25;;;8.10;99.90;;;;;;5031859;28;20041;-70
2023/10/25 06:16:32;;;;;;;12.23;6.82;;;8.10;99.90;;;;;;5015583;28;20548;-70
2023/10/25 06:18:58;;;;;;;10.65;6.05;;;8.00;99.90;;;;;;5031769;28;20049;-70
2023/10/25 06:21:23;;;;;;;11.52;5.47;;;8.10;99.90;;;;;;5031782;28;20081;-70
2023/10/25 06:23:50;;;;;;;9.65;6.00;;;8.00;99.90;;;;;;5031831;28;20041;-70
2023/10/25 06:26:16;;;;;;;16.60;6.70;;;8.00;99.90;;;;;;5031770;28;20046;-70
2023/10/25 06:28:42;;;;;;;9.45;5.82;;;8.10;99.90;;;;;;5031905;28;20040;-70
2023/10/25 06:31:12;;;;;;;13.48;6.72;;;8.10;99.90;;;;;;5031982;28;20486;-70
2023/10/25 06:33:37;;;;;;;13.60;6.05;;;8.10;99.90;;;;;;5033534;28;20063;-70
2023/10/25 06:36:03;;;;;;;15.95;6.40;;;8.10;99.90;;;;;;5033410;28;20037;-70
2023/10/25 06:38:29;;;;;;;14.70;6.40;;;8.10;99.90;;;;;;5035640;28;20038;-70
2023/10/25 06:40:56;;;;;;;12.10;6.05;;;8.10;99.90;;;;;;5035692;28;20117;-70
2023/10/25 06:43:22;;;;;;;11.85;7.25;;;8.10;99.90;;;;;;5035880;28;20136;-70
2023/10/25 06:45:48;;;;;;;11.85;6.75;;;8.10;99.90;;;;;;5035719;28;20458;-70
2023/10/25 06:48:13;;;;;;;21.02;7.45;;;8.10;99.90;;;;;;5035352;28;20053;-70
2023/10/25 06:50:39;;;;;;;12.73;6.50;;;8.10;99.90;;;;;;5035393;28;20071;-70
2023/10/25 06:53:05;;;;;;;14.13;7.20;;;8.10;99.90;;;;;;5035462;28;20045;-70
2023/10/25 06:55:31;;;;;;;17.30;7.30;;;8.20;99.90;;;;;;5035342;28;20077;-70
2023/10/25 06:57:57;;;;;;;12.35;7.30;;;8.10;99.90;;;;;;5035287;28;20041;-70
2023/10/25 07:00:23;;;;;;;14.02;6.50;;;8.20;99.90;;;;;;5035679;28;20038;-70
2023/10/25 07:02:51;;;;;;;18.77;7.93;;;8.20;99.90;;;;;;5035301;28;20087;-71
2023/10/25 07:05:23;;;;;;;16.85;7.18;;;8.20;99.90;;;;;;5035202;28;20042;-70
2023/10/25 07:07:51;;;;;;;17.13;6.80;;;8.20;99.90;;;;;;5035237;28;20045;-70
2023/10/25 07:10:18;;;;;;;16.27;7.20;;;8.20;99.90;;;;;;5035047;28;20049;-71
2023/10/25 07:12:43;;;;;;;11.82;6.60;;;8.20;99.90;;;;;;5018582;28;20045;-71
2023/10/25 07:15:11;;;;;;;12.57;6.47;;;8.20;99.90;;;;;;5035267;28;20037;-71
2023/10/25 07:17:37;;;;;;;12.15;6.63;;;8.20;99.90;;;;;;5035414;28;20497;-70
2023/10/25 07:20:11;;;;;;;15.20;6.80;;;8.20;99.90;;;;;;5035309;28;20053;-71
2023/10/25 07:22:38;;;;;;;16.17;7.00;;;8.30;99.90;;;;;;5035150;28;20440;-71
2023/10/25 07:25:04;;;;;;;12.80;6.43;;;8.30;99.90;;;;;;5034910;28;20046;-71
2023/10/25 07:27:30;;;;;;;10.25;5.95;;;8.30;99.90;;;;;;5034996;28;20041;-70
2023/10/25 07:29:55;;;;;;;9.93;6.13;;;8.30;99.90;;;;;;5034785;28;20383;-70
2023/10/25 07:32:21;;;;;;;14.48;6.88;;;8.30;99.90;;;;;;5034738;28;20048;-71
2023/10/25 07:34:47;;;;;;;13.32;6.70;;;8.40;99.90;;;;;;5034740;28;20098;-71
2023/10/25 07:37:12;;;;;;;9.82;5.72;;;8.40;99.90;;;;;;5034890;28;20037;-70
2023/10/25 07:39:40;;;;;;;13.90;6.15;;;8.40;99.90;;;;;;5034551;28;20523;-70
2023/10/25 07:42:06;;;;;;;9.45;5.82;;;8.50;99.90;;;;;;5034841;28;20103;-71
2023/10/25 07:44:31;;;;;;;13.40;5.63;;;8.50;99.90;;;;;;5034911;28;20496;-71
2023/10/25 07:46:57;;;;;;;10.35;5.80;;;8.60;99.90;;;;;;5034112;28;20424;-71
2023/10/25 07:49:22;;;;;;;9.35;6.00;;;8.60;99.90;;;;;;5034230;28;20505;-70
2023/10/25 07:51:48;;;;;;;15.45;6.32;;;8.60;99.90;;;;;;5034427;28;20041;-71
2023/10/25 07:54:14;;;;;;;9.70;6.57;;;8.70;99.90;;;;;;5034364;28;20045;-71
2023/10/25 07:56:39;;;;;;;12.18;5.90;;;8.80;99.90;;;;;;5034286;28;20125;-71
2023/10/25 07:59:05;;;;;;;12.98;5.63;;;8.70;99.90;;;;;;5034433;28;20045;-71
2023/10/25 08:01:30;;;;;;;13.25;6.25;;;8.80;99.90;;;;;;5034284;28;20450;-71
2023/10/25 08:03:56;;;;;;;13.32;5.65;;;8.80;99.90;;;;;;5034299;28;20052;-71
2023/10/25 08:06:22;;;;;;;11.98;5.88;;;8.90;99.90;;;;;;5034141;28;20068;-71
2023/10/25 08:08:50;;;;;;;11.93;6.63;;;8.90;99.90;;;;;;5034269;28;20045;-71
2023/10/25 08:11:16;;;;;;;11.98;5.72;;;8.90;99.90;;;;;;5034011;28;20044;-71
2023/10/25 08:13:44;;;;;;;12.23;5.82;;;9.00;99.90;;;;;;5034224;28;20029;-71
2023/10/25 08:16:10;;;;;;;11.85;6.03;;;9.10;99.90;;;;;;5033912;28;20482;-71
2023/10/25 08:18:35;;;;;;;11.05;5.55;;;9.10;99.90;;;;;;5033779;28;20124;-71
2023/10/25 08:21:02;;;;;;;12.35;6.15;;;9.10;99.90;;;;;;5033808;28;20096;-69
2023/10/25 08:23:28;;;;;;;8.18;5.70;;;9.20;99.90;;;;;;5033680;28;20124;-69
2023/10/25 08:25:59;;;;;;;11.90;5.82;;;9.20;99.90;;;;;;5033762;28;20041;-69
2023/10/25 08:28:24;;;;;;;12.57;5.65;;;9.30;99.90;;;;;;5033926;28;20090;-69
2023/10/25 08:30:50;;;;;;;14.40;5.97;;;9.30;99.90;;;;;;5033663;28;20042;-69
2023/10/25 08:33:15;;;;;;;9.32;5.72;;;9.30;99.90;;;;;;5033829;28;20045;-69
2023/10/25 08:35:41;;;;;;;13.32;5.65;;;9.30;99.90;;;;;;5033837;28;20414;-69
2023/10/25 08:38:06;;;;;;;10.05;5.72;;;9.40;99.90;;;;;;5033425;28;20049;-69
2023/10/25 08:40:32;;;;;;;12.55;5.75;;;9.40;99.90;;;;;;5033705;28;20041;-69
2023/10/25 08:42:59;;;;;;;14.10;5.97;;;9.50;99.90;;;;;;5033462;28;20532;-70
2023/10/25 08:45:25;;;;;;;11.40;5.85;;;9.50;99.90;;;;;;5033319;28;20050;-70
2023/10/25 08:47:51;;;;;;;13.13;6.25;;;9.50;99.90;;;;;;5033156;28;20109;-69
2023/10/25 08:50:19;;;;;;;11.80;6.07;;;9.50;99.90;;;;;;5033526;28;20037;-69
2023/10/25 08:52:48;;;;;;;10.43;5.53;;;9.60;99.90;;;;;;5033247;28;20029;-69
2023/10/25 08:55:16;;;;;;;11.63;6.53;;;9.60;99.90;;;;;;5033403;28;20064;-70
2023/10/25 08:57:42;;;;;;;12.05;6.32;;;9.60;99.90;;;;;;5016833;28;20049;-69
2023/10/25 09:00:09;;;;;;;11.93;5.70;;;9.70;99.90;;;;;;5015666;28;20490;-69
2023/10/25 09:02:39;;;;;;;16.40;6.68;;;9.80;99.90;;;;;;5033201;28;20417;-69
2023/10/25 09:05:09;;;;;;;11.43;6.43;;;9.80;99.90;;;;;;5032896;28;20037;-69
2023/10/25 09:07:36;;;;;;;12.13;5.53;;;9.80;99.90;;;;;;5032854;28;20557;-69
2023/10/25 09:10:19;;;;;;;12.82;6.22;;;9.90;99.90;;;;;;5033564;28;20049;-69
2023/10/25 09:12:45;;;;;;;;;;;10.00;99.90;;;;;;5033305;28;20125;-69
2023/10/25 09:15:11;;;;;;;11.77;6.80;;;10.00;99.90;;;;;;5033058;28;20008;-69
2023/10/25 09:17:36;;;;;;;14.38;6.45;;;10.00;99.90;;;;;;5032881;28;20572;-69
2023/10/25 09:20:09;;;;;;;10.25;5.93;;;10.10;99.90;;;;;;5091641;27;20385;-69
2023/10/25 09:22:34;;;;;;;12.23;6.40;;;10.20;99.90;;;;;;5089465;28;20090;-70
2023/10/25 09:25:02;;;;;;;15.90;6.10;;;10.30;99.90;;;;;;5073112;28;20040;-70
2023/10/25 09:27:28;;;;;;;13.35;6.05;;;10.50;99.90;;;;;;5089245;28;20566;-69
2023/10/25 09:30:11;;;;;;;13.32;5.97;;;10.60;99.90;;;;;;5089588;28;20123;-70
2023/10/25 09:32:36;;;;;;;13.15;6.00;;;10.80;99.90;;;;;;5089327;28;20044;-70
2023/10/25 09:35:03;;;;;;;9.10;5.75;;;10.90;99.90;;;;;;5089391;28;20048;-69
2023/10/25 09:37:29;;;;;;;14.65;5.75;;;11.10;99.90;;;;;;5090351;28;20123;-69
2023/10/25 09:39:54;;;;;;;11.50;5.85;;;11.20;99.90;;;;;;5090780;28;20119;-69
2023/10/25 09:42:25;;;;;;;11.63;6.03;;;11.30;99.90;;;;;;5089072;28;20044;-69
2023/10/25 09:44:57;;;;;;;13.85;5.00;;;11.50;99.90;;;;;;5089083;28;20130;-69
2023/10/25 09:47:29;;;;;;;11.25;5.40;;;11.60;99.90;;;;;;5088920;28;20072;-69
2023/10/25 09:50:06;;;;;;;11.45;5.25;;;11.70;99.90;;;;;;5088935;28;20044;-69
2023/10/25 09:52:37;;;;;;;10.95;5.07;;;11.80;99.90;;;;;;5089143;28;20106;-69
2023/10/25 09:55:11;;;;;;;8.60;4.80;;;11.90;99.90;;;;;;5088859;28;20097;-70
2023/10/25 09:57:38;;;;;;;12.70;5.35;;;12.00;99.90;;;;;;5088943;28;20517;-70
2023/10/25 10:00:08;;;;;;;9.73;4.70;;;12.10;99.90;;;;;;5088698;28;20095;-70
2023/10/25 10:02:55;;;;;;;9.13;4.10;;;12.20;99.90;;;;;;5088651;28;20489;-70
2023/10/25 10:05:36;;;;;;;12.25;4.65;;;12.20;99.90;;;;;;5088931;28;20075;-70
2023/10/25 10:08:10;;;;;;;9.98;5.00;;;12.40;99.90;;;;;;5088747;28;20455;-70
2023/10/25 10:10:45;;;;;;;11.38;4.80;;;12.40;99.90;;;;;;5088554;28;20059;-70
2023/10/25 10:13:18;;;;;;;10.45;4.50;;;12.50;99.90;;;;;;5088545;28;20532;-70
2023/10/25 10:16:09;;;;;;;11.40;4.60;;;12.60;99.90;;;;;;5088396;28;20055;-70
2023/10/25 10:18:38;;;;;;;7.32;4.45;;;12.70;99.90;;;;;;5088288;28;20447;-69
2023/10/25 10:21:09;;;;;;;8.82;4.38;;;12.80;99.90;;;;;;5088323;28;20035;-70
2023/10/25 10:23:37;;;;;;;8.82;4.38;;;12.80;99.90;;;;;;5088292;28;20036;-70
2023/10/25 10:26:04;;;;;;;8.30;5.07;;;12.90;99.90;;;;;;5088270;28;20055;-70
2023/10/25 10:28:43;;;;;;;11.60;4.93;;;12.80;99.90;;;;;;5088092;28;20052;-70
2023/10/25 10:31:10;;;;;;;9.63;4.60;;;12.90;99.90;;;;;;5076748;28;20473;-70
2023/10/25 10:33:49;;;;;;;9.45;4.63;;;12.80;99.90;;;;;;5074622;28;20040;-70
2023/10/25 10:36:23;;;;;;;10.55;4.47;;;12.90;99.90;;;;;;5074536;28;20090;-71
2023/10/25 10:39:16;;;;;;;11.50;5.10;;;12.90;99.90;;;;;;5074518;28;20040;-70
2023/10/25 10:41:43;;;;;;;12.63;4.67;;;12.90;99.90;;;;;;5074508;28;20044;-70
2023/10/25 10:44:11;;;;;;;11.25;4.88;;;12.90;99.90;;;;;;5074637;28;20647;-71
2023/10/25 10:46:54;;;;;;;7.97;4.60;;;12.80;99.90;;;;;;5074348;28;20465;-70
2023/10/25 10:49:23;;;;;;;8.88;4.38;;;12.90;99.90;;;;;;5074284;28;20143;-69
2023/10/25 10:51:49;;;;;;;10.75;4.75;;;12.80;99.90;;;;;;5057565;28;20040;-70
2023/10/25 10:54:15;;;;;;;6.97;4.43;;;12.70;99.90;;;;;;5074242;28;20041;-70
2023/10/25 10:56:40;;;;;;;11.38;4.57;;;12.70;99.90;;;;;;5074516;28;20041;-70
2023/10/25 10:59:06;;;;;;;10.80;4.78;;;12.60;99.90;;;;;;5075412;28;20497;-70
2023/10/25 11:01:32;;;;;;;12.95;4.75;;;12.60;99.90;;;;;;5074451;28;20036;-70
2023/10/25 11:03:58;;;;;;;11.52;5.15;;;12.60;99.90;;;;;;5074146;28;20036;-70
2023/10/25 11:06:25;;;;;;;10.15;5.18;;;12.50;99.90;;;;;;5074324;28;20040;-70
2023/10/25 11:08:52;;;;;;;6.47;4.40;;;12.50;99.90;;;;;;5074023;28;20076;-70
2023/10/25 11:11:21;;;;;;;12.48;5.70;;;12.40;99.90;;;;;;5073928;28;20044;-70
2023/10/25 11:13:50;;;;;;;10.73;4.88;;;12.40;99.90;;;;;;5073871;28;20560;-70
2023/10/25 11:16:16;;;;;;;9.75;4.88;;;12.30;99.90;;;;;;5075331;28;20086;-70
2023/10/25 11:18:42;;;;;;;8.65;4.63;;;12.20;99.90;;;;;;5073614;28;20040;-70
2023/10/25 11:21:07;;;;;;;9.35;4.68;;;12.20;99.90;;;;;;5073886;28;20032;-70
2023/10/25 11:23:33;;;;;;;9.95;4.30;;;12.20;99.90;;;;;;5075239;28;20029;-70
2023/10/25 11:25:59;;;;;;;6.90;3.88;;;12.10;99.90;;;;;;5073647;28;20402;-70
2023/10/25 11:28:26;;;;;;;7.97;4.40;;;12.10;99.90;;;;;;5075127;28;20033;-70
2023/10/25 11:30:52;;;;;;;12.68;4.63;;;12.10;99.90;;;;;;5073875;28;20408;-70
2023/10/25 11:33:18;;;;;;;7.97;4.10;;;12.00;99.90;;;;;;5073663;28;20515;-70
2023/10/25 11:35:44;;;;;;;10.60;3.92;;;12.00;99.90;;;;;;5073481;28;20051;-70
2023/10/25 11:38:10;;;;;;;7.28;3.67;;;12.00;99.90;;;;;;5073241;28;20044;-70
2023/10/25 11:40:39;;;;;;;10.05;4.40;;;11.90;99.90;;;;;;5073317;28;20090;-70
2023/10/25 11:43:06;;;;;;;8.07;3.95;;;11.90;99.90;;;;;;5072274;28;20442;-70
2023/10/25 11:45:32;;;;;;;8.88;3.70;;;11.90;99.90;;;;;;5073174;28;20512;-71
2023/10/25 11:47:58;;;;;;;9.18;4.10;;;11.80;99.90;;;;;;5073095;28;20096;-70
2023/10/25 11:50:24;;;;;;;13.18;4.20;;;11.80;99.90;;;;;;5073132;28;20041;-70
2023/10/25 11:52:49;;;;;;;8.98;4.30;;;11.80;99.90;;;;;;5073380;28;20055;-70
2023/10/25 11:55:15;;;;;;;11.75;3.75;;;11.80;99.90;;;;;;5073046;28;20444;-71
2023/10/25 11:57:42;;;;;;;9.30;4.03;;;11.80;99.90;;;;;;5072910;28;20037;-70
2023/10/25 12:00:10;;;;;;;9.70;4.60;;;11.80;99.90;;;;;;5072870;28;20091;-70
2023/10/25 12:02:36;;;;;;;9.77;3.95;;;11.80;99.90;;;;;;5073135;28;20404;-70
2023/10/25 12:05:03;;;;;;;14.05;4.60;;;11.80;99.90;;;;;;5072822;28;20044;-70
2023/10/25 12:07:31;;;;;;;6.72;3.83;;;11.70;99.90;;;;;;5072742;28;20413;-70
2023/10/25 12:09:57;;;;;;;9.75;3.80;;;11.80;99.90;;;;;;5072716;28;20048;-70
2023/10/25 12:12:23;;;;;;;6.43;3.60;;;11.70;99.90;;;;;;5072660;28;20101;-70
2023/10/25 12:14:50;;;;;;;7.80;3.75;;;11.70;99.90;;;;;;5072650;28;20044;-71
2023/10/25 12:17:17;;;;;;;9.10;4.38;;;11.70;99.90;;;;;;5072859;28;20048;-70
2023/10/25 12:19:45;;;;;;;6.90;3.42;;;11.70;99.90;;;;;;5072414;28;20044;-70
2023/10/25 12:22:13;;;;;;;7.75;3.70;;;11.70;99.90;;;;;;5072781;28;20051;-70
2023/10/25 12:24:41;;;;;;;8.10;3.65;;;11.70;99.90;;;;;;5072498;28;20043;-70
2023/10/25 12:27:07;;;;;;;9.38;4.10;;;11.60;99.90;;;;;;5073788;28;20037;-70
2023/10/25 12:29:33;;;;;;;10.93;4.18;;;11.60;99.90;;;;;;5072906;28;20155;-70
2023/10/25 12:31:59;;;;;;;6.60;3.92;;;11.70;99.90;;;;;;5072680;28;20056;-70
2023/10/25 12:34:25;;;;;;;11.25;4.35;;;11.60;99.90;;;;;;5072294;28;20394;-70
2023/10/25 12:36:51;;;;;;;11.38;4.40;;;11.60;99.90;;;;;;5072280;28;20036;-70
2023/10/25 12:39:16;;;;;;;13.18;4.85;;;11.50;99.90;;;;;;5072082;28;20048;-70
2023/10/25 12:41:43;;;;;;;7.93;4.15;;;11.50;99.90;;;;;;5072167;28;20128;-70
2023/10/25 12:44:09;;;;;;;10.50;4.68;;;11.50;99.90;;;;;;5072231;28;20036;-70